Time;durP1;ratioP1;P1;durP2;ratioP2;P2;SDS_P1;SDS_P2;PMS_P1;PMS_P2;Temp;Humidity;BMP_temperature;BMP_pressure;BME280_temperature;BME280_humidity;BME280_pressure;Samples;Min_cycle;Max_cycle;Signal;HPM_P1;HPM_P2
2022/06/01 00:01:58;;;;;;;1.52;1.42;;;;;;;15.08;73.02;100662.97;1645133;87;21068;-58
2022/06/01 00:04:28;;;;;;;1.82;1.30;;;;;;;15.11;72.44;100662.53;1645460;87;21052;-57
2022/06/01 00:06:57;;;;;;;2.62;1.65;;;;;;;15.09;71.94;100652.24;1645440;87;21040;-59
2022/06/01 00:09:27;;;;;;;1.57;1.47;;;;;;;15.08;71.85;100652.78;1645271;87;21546;-58
2022/06/01 00:11:58;;;;;;;3.37;1.75;;;;;;;15.08;71.45;100650.55;1645276;87;21498;-57
2022/06/01 00:14:26;;;;;;;2.85;1.30;;;;;;;15.09;71.40;100643.97;1645503;87;21008;-57
2022/06/01 00:16:57;;;;;;;2.02;1.20;;;;;;;15.11;71.12;100650.11;1645489;87;21071;-59
2022/06/01 00:19:26;;;;;;;2.33;1.75;;;;;;;15.08;70.72;100653.31;1645190;87;21158;-58
2022/06/01 00:22:14;;;;;;;4.35;1.40;;;;;;;15.04;70.58;100650.69;1645234;87;21087;-58
2022/06/01 00:24:44;;;;;;;2.45;1.40;;;;;;;15.01;70.67;100653.89;1645214;87;21080;-58
2022/06/01 00:27:13;;;;;;;2.58;1.60;;;;;;;14.97;70.90;100651.25;1645205;87;21087;-58
2022/06/01 00:29:43;;;;;;;1.98;1.60;;;;;;;14.97;70.79;100655.39;1645455;87;21097;-58
2022/06/01 00:32:14;;;;;;;2.98;1.80;;;;;;;14.98;70.76;100652.95;1645563;87;21059;-59
2022/06/01 00:34:45;;;;;;;1.50;1.40;;;;;;;14.96;70.92;100642.12;1645404;87;21071;-59
2022/06/01 00:37:13;;;;;;;1.32;1.22;;;;;;;14.94;71.03;100647.52;1645119;87;21044;-59
2022/06/01 00:39:44;;;;;;;1.60;1.50;;;;;;;14.94;71.14;100650.28;1645256;87;21072;-58
2022/06/01 00:42:21;;;;;;;3.98;1.50;;;;;;;14.91;70.83;100648.28;1645265;87;21482;-58
2022/06/01 00:44:50;;;;;;;2.65;1.50;;;;;;;14.93;70.60;100654.11;1645478;87;21028;-59
2022/06/01 00:47:22;;;;;;;1.98;1.40;;;;;;;14.93;70.44;100652.73;1615199;87;21481;-59
2022/06/01 00:50:15;;;;;;;4.15;1.67;;;;;;;14.89;70.37;100657.31;1645549;87;21006;-57
2022/06/01 00:52:54;;;;;;;1.95;1.70;;;;;;;14.89;70.23;100662.83;1645198;87;21043;-57
2022/06/01 00:55:28;;;;;;;1.45;1.22;;;;;;;14.86;70.16;100663.80;1651965;86;21080;-57
2022/06/01 00:58:08;;;;;;;1.52;1.42;;;;;;;14.87;70.21;100656.68;1661442;86;21052;-58
2022/06/01 01:00:39;;;;;;;1.67;1.52;;;;;;;14.89;70.26;100660.59;1661339;86;21051;-58
2022/06/01 01:03:11;;;;;;;1.82;1.40;;;;;;;14.87;70.27;100662.73;1638855;86;21032;-58
2022/06/01 01:05:47;;;;;;;4.53;1.70;;;;;;;14.86;70.49;100668.78;1661048;86;21472;-58
2022/06/01 01:08:16;;;;;;;1.72;1.57;;;;;;;14.84;70.60;100666.77;1661004;86;21123;-58
2022/06/01 01:10:45;;;;;;;2.83;1.70;;;;;;;14.84;70.39;100668.69;1661117;86;21044;-58
2022/06/01 01:13:14;;;;;;;1.87;1.50;;;;;;;14.82;70.36;100668.06;1661277;86;21052;-59
2022/06/01 01:15:52;;;;;;;1.50;1.40;;;;;;;14.79;70.35;100666.58;1661038;86;21024;-59
2022/06/01 01:18:23;;;;;;;1.60;1.30;;;;;;;14.77;70.33;100670.09;1661391;86;21100;-57
2022/06/01 01:21:20;;;;;;;2.25;1.70;;;;;;;14.75;70.14;100665.33;1661308;86;21068;-58
2022/06/01 01:24:25;;;;;;;9.85;1.90;;;;;;;14.71;70.14;100668.21;1661117;86;21083;-58
2022/06/01 01:26:56;;;;;;;2.20;1.42;;;;;;;14.68;70.31;100666.42;1660967;86;21084;-57
2022/06/01 01:29:39;;;;;;;1.82;1.60;;;;;;;14.64;70.54;100666.02;1661109;86;21040;-59
2022/06/01 01:32:09;;;;;;;2.40;1.80;;;;;;;14.60;70.41;100664.75;1661176;86;21554;-58
2022/06/01 01:34:38;;;;;;;2.67;1.70;;;;;;;14.54;70.79;100664.25;1661059;86;21020;-57
2022/06/01 01:37:25;;;;;;;2.60;1.50;;;;;;;14.49;71.00;100664.05;1661025;86;21052;-58
2022/06/01 01:39:54;;;;;;;1.87;1.30;;;;;;;14.46;71.04;100666.70;1661008;86;21060;-57
2022/06/01 01:42:24;;;;;;;1.95;1.50;;;;;;;14.45;70.86;100669.69;1660960;86;21052;-59
2022/06/01 01:45:01;;;;;;;1.62;1.50;;;;;;;14.40;70.81;100671.68;1661129;86;21036;-59
2022/06/01 01:47:39;;;;;;;3.72;1.67;;;;;;;14.37;70.97;100665.22;1661095;86;21061;-58
2022/06/01 01:50:10;;;;;;;2.75;1.80;;;;;;;14.36;70.98;100666.81;1661435;86;21464;-58
2022/06/01 01:52:41;;;;;;;2.50;1.80;;;;;;;14.35;71.09;100660.45;1661246;86;21556;-58
2022/06/01 01:55:34;;;;;;;2.33;1.70;;;;;;;14.35;70.81;100660.98;1660348;86;21084;-58
2022/06/01 01:58:34;;;;;;;1.67;1.40;;;;;;;14.34;70.79;100659.29;1658235;86;21756;-58
2022/06/01 02:01:06;;;;;;;;;;;;;;;14.34;70.65;100657.91;1660561;86;21106;-59
2022/06/01 02:03:50;;;;;;;4.75;2.08;;;;;;;14.26;70.59;100655.67;1658043;86;20232;-58
2022/06/01 02:06:28;;;;;;;2.40;1.60;;;;;;;14.24;70.69;100651.44;1658049;86;21048;-57
2022/06/01 02:09:11;;;;;;;3.45;1.90;;;;;;;14.22;70.61;100655.79;1658175;86;21048;-57
2022/06/01 02:14:53;;;;;;;2.33;1.70;;;;;;;14.19;70.55;100656.22;1658242;86;21060;-57
2022/06/01 02:17:31;;;;;;;4.40;1.70;;;;;;;14.17;70.40;100656.97;1658247;86;21471;-57
2022/06/01 02:20:07;;;;;;;;;;;;;;;14.17;70.33;100651.45;1660728;86;21088;-57
2022/06/01 02:22:39;;;;;;;2.15;1.40;;;;;;;14.20;70.12;100651.55;1658103;86;20538;-58
2022/06/01 02:25:09;;;;;;;2.45;1.40;;;;;;;14.21;70.01;100654.09;1658186;86;21017;-58
2022/06/01 02:27:38;;;;;;;2.83;1.70;;;;;;;14.23;69.92;100656.63;1658218;86;21112;-58
2022/06/01 02:30:20;;;;;;;1.70;1.60;;;;;;;14.25;69.82;100659.48;1658273;86;21099;-57
2022/06/01 02:32:48;;;;;;;6.30;2.08;;;;;;;14.27;69.76;100653.23;1658444;86;21092;-58
2022/06/01 02:35:19;;;;;;;1.87;1.67;;;;;;;14.32;69.64;100651.77;1658321;86;21064;-57
2022/06/01 02:37:54;;;;;;;2.50;1.70;;;;;;;14.35;69.42;100642.53;1658175;86;21077;-58
2022/06/01 02:40:25;;;;;;;2.45;1.67;;;;;;;14.38;69.17;100647.62;1641225;86;21084;-57
2022/06/01 02:42:55;;;;;;;3.50;2.10;;;;;;;14.41;68.90;100655.45;1658420;86;21056;-58
2022/06/01 02:45:26;;;;;;;2.45;1.70;;;;;;;14.44;68.67;100656.43;1658611;86;21056;-57
2022/06/01 02:47:57;;;;;;;2.00;1.70;;;;;;;14.47;68.65;100651.86;1658459;86;21056;-58
2022/06/01 02:50:27;;;;;;;3.35;1.87;;;;;;;14.50;68.62;100647.82;1658230;86;21068;-57
2022/06/01 02:52:56;;;;;;;3.08;1.77;;;;;;;14.56;68.52;100657.98;1658360;86;21084;-57
2022/06/01 02:55:25;;;;;;;2.45;1.75;;;;;;;14.59;68.39;100654.79;1658377;86;21103;-58
2022/06/01 02:57:54;;;;;;;3.47;1.90;;;;;;;14.61;68.15;100649.05;1658311;86;21092;-58
2022/06/01 03:00:30;;;;;;;3.45;2.37;;;;;;;14.65;68.00;100655.83;1658465;86;21052;-59
2022/06/01 03:02:59;;;;;;;2.30;1.70;;;;;;;14.66;67.96;100663.03;1658283;86;21091;-57
2022/06/01 03:05:33;;;;;;;2.22;1.80;;;;;;;14.67;67.69;100663.35;1658575;86;21051;-57
2022/06/01 03:08:05;;;;;;;2.45;1.60;;;;;;;14.67;67.40;100660.06;1658365;86;21068;-58
2022/06/01 03:10:34;;;;;;;3.05;1.70;;;;;;;14.71;67.37;100662.70;1658259;86;21112;-58
2022/06/01 03:13:04;;;;;;;4.45;1.90;;;;;;;14.76;67.32;100670.31;1658426;86;21119;-58
2022/06/01 03:15:35;;;;;;;2.25;1.80;;;;;;;14.80;67.09;100671.04;1658516;86;21040;-57
2022/06/01 03:18:05;;;;;;;3.75;1.70;;;;;;;14.82;66.73;100660.63;1658260;86;21654;-57
2022/06/01 03:20:34;;;;;;;2.75;1.92;;;;;;;14.86;66.36;100664.64;1658258;86;21464;-58
2022/06/01 03:23:03;;;;;;;2.70;1.70;;;;;;;14.90;66.41;100665.89;1658542;86;21053;-58
2022/06/01 03:25:31;;;;;;;2.35;1.80;;;;;;;14.97;66.36;100656.77;1658067;86;21091;-57
2022/06/01 03:28:00;;;;;;;2.55;1.67;;;;;;;15.02;66.43;100662.48;1658263;86;21712;-57
2022/06/01 03:30:30;;;;;;;2.35;1.80;;;;;;;15.07;66.65;100660.75;1658572;86;21095;-58
2022/06/01 03:32:58;;;;;;;2.47;1.87;;;;;;;15.10;66.39;100660.84;1658149;86;21020;-57
2022/06/01 03:35:30;;;;;;;2.90;1.80;;;;;;;15.14;66.11;100662.09;1658352;86;21076;-58
2022/06/01 03:37:59;;;;;;;2.42;1.40;;;;;;;15.18;65.95;100661.95;1658200;86;21558;-57
2022/06/01 03:40:31;;;;;;;1.90;1.37;;;;;;;15.21;66.13;100655.45;1658571;86;21462;-57
2022/06/01 03:43:00;;;;;;;2.98;1.80;;;;;;;15.25;65.35;100660.00;1658220;86;21542;-58
2022/06/01 03:48:18;;;;;;;2.37;1.80;;;;;;;15.27;64.94;100656.48;1658229;86;21044;-58
2022/06/01 03:50:47;;;;;;;4.65;1.90;;;;;;;15.33;64.89;100655.59;1658425;86;21108;-56
2022/06/01 03:53:16;;;;;;;3.83;2.17;;;;;;;15.37;64.94;100651.31;1658154;86;21052;-60
2022/06/01 03:55:45;;;;;;;4.30;1.70;;;;;;;15.40;64.59;100648.11;1658236;86;21109;-57
2022/06/01 03:58:16;;;;;;;4.95;2.42;;;;;;;15.43;64.39;100646.81;1658285;86;21052;-58
2022/06/01 04:00:45;;;;;;;3.05;1.82;;;;;;;15.45;64.30;100643.30;1658372;86;21076;-58
2022/06/01 04:03:14;;;;;;;2.35;1.80;;;;;;;15.48;63.96;100644.23;1658380;86;21080;-57
2022/06/01 04:05:44;;;;;;;2.77;2.00;;;;;;;15.49;63.90;100642.62;1658319;86;21512;-57
2022/06/01 04:08:13;;;;;;;3.80;2.00;;;;;;;15.52;63.71;100639.41;1658264;86;21072;-57
2022/06/01 04:10:47;;;;;;;3.80;1.90;;;;;;;15.55;63.76;100640.88;1658388;86;21013;-59
2022/06/01 04:13:14;;;;;;;2.62;1.50;;;;;;;15.58;63.63;100640.47;1658105;86;21134;-59
2022/06/01 04:15:42;;;;;;;3.10;1.72;;;;;;;15.61;64.20;100637.29;1658254;86;21100;-58
2022/06/01 04:18:14;;;;;;;4.17;2.50;;;;;;;15.63;64.24;100632.92;1658194;86;21092;-58
2022/06/01 04:20:43;;;;;;;3.77;2.05;;;;;;;15.64;63.67;100638.22;1658251;86;21128;-58
2022/06/01 04:23:12;;;;;;;3.85;1.75;;;;;;;15.65;63.29;100636.30;1658305;86;21081;-58
2022/06/01 04:25:41;;;;;;;3.30;1.75;;;;;;;15.65;63.22;100639.06;1658260;86;21136;-58
2022/06/01 04:28:11;;;;;;;8.70;2.10;;;;;;;15.69;63.23;100644.45;1658216;86;21562;-58
2022/06/01 04:30:40;;;;;;;3.42;2.30;;;;;;;15.73;63.14;100644.30;1658312;86;21056;-58
2022/06/01 04:33:08;;;;;;;3.37;2.02;;;;;;;15.75;63.56;100637.48;1658378;86;21052;-58
2022/06/01 04:35:37;;;;;;;4.42;2.00;;;;;;;15.79;63.34;100639.26;1658649;86;21488;-58
2022/06/01 04:38:12;;;;;;;4.95;2.30;;;;;;;15.83;63.32;100639.96;1658456;86;21073;-58
2022/06/01 04:40:46;;;;;;;2.98;2.02;;;;;;;15.88;62.93;100634.29;1637580;87;21136;-57
2022/06/01 04:43:21;;;;;;;4.28;2.05;;;;;;;15.93;62.83;100631.69;1636974;87;21113;-59
2022/06/01 04:45:53;;;;;;;2.67;2.00;;;;;;;16.03;63.09;100629.25;1637254;87;21249;-57
2022/06/01 04:48:22;;;;;;;9.18;2.00;;;;;;;16.15;62.55;100628.27;1637200;87;21075;-61
2022/06/01 04:50:52;;;;;;;5.83;2.20;;;;;;;16.31;62.70;100625.47;1637252;87;21062;-58
2022/06/01 04:53:20;;;;;;;7.42;2.05;;;;;;;16.44;62.27;100625.31;1637283;87;21502;-58
2022/06/01 04:55:49;;;;;;;3.52;2.00;;;;;;;16.59;61.61;100624.92;1636559;87;21085;-60
2022/06/01 04:58:18;;;;;;;3.95;2.30;;;;;;;16.73;61.59;100627.02;1629624;87;21079;-59
2022/06/01 05:00:48;;;;;;;5.87;2.20;;;;;;;16.88;61.04;100616.92;1649704;86;21080;-58
2022/06/01 05:03:19;;;;;;;2.42;2.17;;;;;;;17.02;60.63;100624.84;1649552;87;21069;-58
2022/06/01 05:05:48;;;;;;;6.22;2.50;;;;;;;17.20;60.02;100620.33;1650009;87;21128;-58
2022/06/01 05:08:18;;;;;;;3.70;2.05;;;;;;;17.35;59.77;100626.27;1649735;87;21045;-57
2022/06/01 05:10:47;;;;;;;3.58;2.45;;;;;;;17.50;59.95;100616.97;1649654;87;21104;-57
2022/06/01 05:13:18;;;;;;;2.87;2.17;;;;;;;17.74;59.71;100618.75;1649603;87;21066;-58
2022/06/01 05:15:51;;;;;;;3.37;2.40;;;;;;;17.97;59.60;100617.92;1649491;87;21020;-59
2022/06/01 05:18:20;;;;;;;5.33;2.50;;;;;;;18.17;58.39;100613.39;1649793;87;21075;-59
2022/06/01 05:20:49;;;;;;;3.72;2.42;;;;;;;18.38;57.82;100613.33;1649940;87;21088;-58
2022/06/01 05:23:19;;;;;;;6.22;2.77;;;;;;;18.71;56.80;100613.22;1649564;87;21499;-58
2022/06/01 05:25:50;;;;;;;11.83;3.30;;;;;;;18.96;55.97;100604.89;1649917;87;21045;-58
2022/06/01 05:28:22;;;;;;;11.88;3.83;;;;;;;19.20;55.29;100610.33;1649645;87;21052;-58
2022/06/01 05:30:53;;;;;;;6.42;2.55;;;;;;;19.37;54.51;100611.75;1649291;87;21469;-58
2022/06/01 05:33:25;;;;;;;4.15;2.70;;;;;;;19.48;54.58;100616.40;1649170;87;21065;-58
2022/06/01 05:35:54;;;;;;;5.62;2.83;;;;;;;19.67;54.63;100614.28;1649430;86;21092;-58
2022/06/01 05:38:23;;;;;;;6.55;2.80;;;;;;;19.88;54.04;100614.36;1649442;87;21473;-58
2022/06/01 05:40:56;;;;;;;5.08;2.40;;;;;;;20.02;52.91;100607.05;1649483;87;21100;-58
2022/06/01 05:43:24;;;;;;;5.70;2.70;;;;;;;20.08;52.81;100605.48;1649485;87;21077;-57
2022/06/01 05:45:53;;;;;;;3.33;2.50;;;;;;;20.26;52.50;100609.39;1649511;87;21072;-58
2022/06/01 05:48:22;;;;;;;7.37;2.47;;;;;;;20.46;52.50;100602.45;1649485;87;21044;-58
2022/06/01 05:50:53;;;;;;;2.90;2.55;;;;;;;20.67;51.54;100599.38;1649395;87;21057;-58
2022/06/01 05:53:22;;;;;;;5.30;3.00;;;;;;;20.68;51.99;100601.91;1649559;87;21779;-60
2022/06/01 05:55:50;;;;;;;4.30;2.70;;;;;;;20.76;51.89;100604.78;1649672;87;21033;-58
2022/06/01 05:58:23;;;;;;;4.70;2.85;;;;;;;20.89;50.59;100605.81;1611286;88;21554;-58
2022/06/01 06:00:53;;;;;;;3.45;2.35;;;;;;;20.94;50.99;100605.02;1633941;88;21086;-58
2022/06/01 06:03:23;;;;;;;5.40;2.70;;;;;;;21.14;50.71;100599.13;1633728;88;21837;-58
2022/06/01 06:06:17;;;;;;;6.22;2.67;;;;;;;21.37;50.81;100602.72;1633138;87;21050;-58
2022/06/01 06:08:56;;;;;;;4.95;2.62;;;;;;;21.74;50.24;100598.06;1633890;88;21039;-57
2022/06/01 06:11:27;;;;;;;5.72;3.05;;;;;;;22.02;49.81;100599.66;1633929;87;21063;-57
2022/06/01 06:14:02;;;;;;;5.15;2.98;;;;;;;22.12;48.38;100601.19;1633869;87;21051;-57
2022/06/01 06:16:32;;;;;;;4.85;3.20;;;;;;;22.07;48.51;100600.28;1633932;87;21047;-58
2022/06/01 06:19:01;;;;;;;11.83;3.40;;;;;;;22.11;47.95;100600.91;1633914;88;21011;-60
2022/06/01 06:21:33;;;;;;;4.75;3.08;;;;;;;22.08;48.70;100604.75;1633842;88;21061;-59
2022/06/01 06:24:11;;;;;;;4.22;2.98;;;;;;;22.15;48.00;100609.58;1633740;87;21042;-58
2022/06/01 06:26:42;;;;;;;7.08;3.12;;;;;;;22.17;48.27;100603.17;1633679;87;21078;-59
2022/06/01 06:29:12;;;;;;;4.67;3.10;;;;;;;22.24;48.39;100600.98;1633798;87;21516;-56
2022/06/01 06:31:41;;;;;;;5.60;2.90;;;;;;;22.33;48.71;100600.75;1634030;87;21487;-58
2022/06/01 06:34:11;;;;;;;5.58;3.20;;;;;;;22.55;48.98;100596.95;1633360;87;21079;-58
2022/06/01 06:36:40;;;;;;;10.78;3.87;;;;;;;22.77;48.30;100597.64;1633801;88;21088;-58
2022/06/01 06:39:09;;;;;;;11.10;4.40;;;;;;;23.03;47.64;100596.63;1633904;88;21153;-59
2022/06/01 06:41:38;;;;;;;4.53;3.70;;;;;;;23.20;47.48;100592.76;1633897;88;21043;-58
2022/06/01 06:44:07;;;;;;;4.42;3.37;;;;;;;23.37;47.36;100589.14;1633865;88;21520;-58
2022/06/01 06:46:36;;;;;;;5.40;3.50;;;;;;;23.57;45.60;100595.38;1633789;88;21063;-59
2022/06/01 06:49:06;;;;;;;4.62;3.12;;;;;;;23.62;46.42;100588.38;1633888;88;21035;-58
2022/06/01 06:51:38;;;;;;;6.40;3.30;;;;;;;23.82;45.87;100584.73;1634072;87;21046;-58
2022/06/01 06:54:08;;;;;;;4.40;3.30;;;;;;;23.98;45.05;100583.03;1634154;87;21450;-58
2022/06/01 06:56:36;;;;;;;6.42;4.12;;;;;;;24.04;45.16;100581.07;1634653;86;21106;-60
2022/06/01 06:59:05;;;;;;;10.20;3.65;;;;;;;24.00;45.38;100582.20;1645075;87;21041;-57
2022/06/01 07:01:36;;;;;;;6.75;3.40;;;;;;;24.11;45.78;100584.45;1645169;87;21519;-58
2022/06/01 07:04:05;;;;;;;3.77;2.70;;;;;;;24.31;45.25;100580.23;1645407;87;21040;-58
2022/06/01 07:06:34;;;;;;;6.05;3.50;;;;;;;24.64;44.73;100575.91;1645207;87;21069;-58
2022/06/01 07:09:05;;;;;;;8.40;3.35;;;;;;;25.02;43.88;100574.92;1645309;87;21085;-58
2022/06/01 07:11:37;;;;;;;7.47;4.05;;;;;;;25.20;43.75;100565.00;1645220;87;21112;-57
2022/06/01 07:14:09;;;;;;;8.03;4.25;;;;;;;25.40;43.77;100569.09;1645059;87;21505;-58
2022/06/01 07:16:38;;;;;;;4.53;3.40;;;;;;;25.68;43.23;100568.89;1645263;87;21101;-59
2022/06/01 07:19:08;;;;;;;6.72;3.40;;;;;;;25.91;42.55;100570.08;1645136;87;21088;-57
2022/06/01 07:21:37;;;;;;;5.72;3.37;;;;;;;26.06;41.73;100562.94;1645341;87;21068;-59
2022/06/01 07:24:08;;;;;;;3.65;3.33;;;;;;;26.05;42.65;100563.23;1645196;87;21040;-57
2022/06/01 07:26:41;;;;;;;6.10;3.42;;;;;;;26.17;43.01;100559.45;1645413;87;21105;-57
2022/06/01 07:29:10;;;;;;;4.17;3.65;;;;;;;26.36;42.27;100559.55;1644953;87;21090;-59
2022/06/01 07:31:39;;;;;;;7.20;3.62;;;;;;;26.61;41.90;100552.20;1645226;87;21555;-58
2022/06/01 07:34:08;;;;;;;4.60;3.47;;;;;;;26.61;41.90;100552.20;1645366;87;21053;-57
2022/06/01 07:36:38;;;;;;;4.40;3.85;;;;;;;26.65;42.25;100552.44;1645205;87;21052;-57
2022/06/01 07:44:49;;;;;;;9.48;4.22;;;;;;;27.38;41.69;100554.27;1645013;87;21514;-58
2022/06/01 07:47:18;;;;;;;12.30;7.40;;;;;;;27.66;41.27;100555.80;1644969;87;21061;-58
2022/06/01 07:49:50;;;;;;;6.87;4.30;;;;;;;27.61;40.96;100553.91;1645119;87;21096;-58
2022/06/01 07:52:21;;;;;;;4.83;3.90;;;;;;;27.54;41.19;100558.23;1655898;86;21090;-60
2022/06/01 07:54:54;;;;;;;6.75;3.90;;;;;;;27.58;41.06;100562.10;1591577;85;21059;-59
2022/06/01 07:57:21;;;;;;;7.50;4.28;;;;;;;27.60;41.25;100554.19;1659228;85;21082;-60
2022/06/01 07:59:50;;;;;;;7.00;5.30;;;;;;;27.72;41.02;100560.20;1680950;84;21023;-61
2022/06/01 08:02:19;;;;;;;6.92;4.60;;;;;;;27.91;40.46;100550.28;1682620;85;21045;-60
2022/06/01 08:04:48;;;;;;;6.50;4.35;;;;;;;28.05;40.48;100552.02;1680718;85;21002;-61
2022/06/01 08:07:19;;;;;;;7.00;4.45;;;;;;;28.07;40.18;100548.31;1680299;84;21369;-61
2022/06/01 08:09:48;;;;;;;7.33;4.60;;;;;;;28.00;40.43;100546.48;1680156;85;21065;-60
2022/06/01 08:15:08;;;;;;;9.38;7.33;;;;;;;28.07;40.28;100547.48;1682400;85;21047;-58
2022/06/01 08:17:38;;;;;;;5.28;4.30;;;;;;;28.18;40.18;100538.25;1681839;85;21506;-58
2022/06/01 08:20:11;;;;;;;8.43;4.62;;;;;;;28.16;40.03;100532.09;1682586;85;21051;-58
2022/06/01 08:22:40;;;;;;;10.43;4.92;;;;;;;28.04;40.29;100539.08;1682537;85;21082;-58
2022/06/01 08:25:13;;;;;;;9.23;4.62;;;;;;;27.92;40.45;100530.27;1682561;85;20999;-58
2022/06/01 08:27:42;;;;;;;9.00;5.00;;;;;;;27.78;40.51;100526.58;1682443;85;21094;-59
2022/06/01 08:30:12;;;;;;;8.35;4.75;;;;;;;27.60;41.28;100527.44;1681045;85;21022;-59
2022/06/01 08:32:44;;;;;;;9.18;4.97;;;;;;;27.60;41.44;100528.28;1679976;85;21461;-59
2022/06/01 08:35:16;;;;;;;10.00;4.87;;;;;;;27.59;41.48;100527.17;1679919;85;20997;-58
2022/06/01 08:37:46;;;;;;;9.90;6.00;;;;;;;27.59;41.88;100535.63;1680128;85;21326;-59
2022/06/01 08:40:18;;;;;;;8.55;5.00;;;;;;;27.67;42.09;100537.19;1680021;85;21082;-58
2022/06/01 08:42:55;;;;;;;9.05;5.45;;;;;;;27.80;42.02;100532.74;1679905;84;21454;-58
2022/06/01 08:45:24;;;;;;;9.20;4.65;;;;;;;27.89;41.38;100528.06;1680087;85;21513;-58
2022/06/01 08:47:53;;;;;;;10.13;4.67;;;;;;;27.97;41.44;100528.78;1680162;84;21446;-59
2022/06/01 08:50:33;;;;;;;5.75;4.65;;;;;;;28.02;41.01;100529.27;1679719;85;21069;-60
2022/06/01 08:53:06;;;;;;;8.83;4.75;;;;;;;28.05;40.92;100528.64;1685082;85;21133;-57
2022/06/01 08:55:55;;;;;;;10.65;4.67;;;;;;;27.98;41.51;100529.63;1680813;85;21069;-59
2022/06/01 08:58:55;;;;;;;8.20;4.35;;;;;;;27.84;41.43;100522.52;1682545;84;21094;-60
2022/06/01 09:01:41;;;;;;;9.53;5.60;;;;;;;27.86;41.34;100522.22;1669468;85;21023;-60
2022/06/01 09:04:28;;;;;;;7.90;4.70;;;;;;;27.63;41.69;100522.63;1662479;86;21032;-60
2022/06/01 09:07:26;;;;;;;16.05;7.80;;;;;;;27.52;41.97;100518.30;1661970;86;21356;-58
2022/06/01 09:10:07;;;;;;;9.70;5.10;;;;;;;27.52;42.62;100515.48;1663552;85;21498;-60
2022/06/01 09:12:36;;;;;;;7.08;5.00;;;;;;;27.55;42.56;100519.09;1662196;86;21099;-60
2022/06/01 09:15:14;;;;;;;11.73;5.25;;;;;;;27.48;43.17;100516.67;1662027;86;21050;-59
2022/06/01 09:17:45;;;;;;;9.00;4.42;;;;;;;27.48;43.17;100516.67;1661196;86;21505;-60
2022/06/01 09:23:08;;;;;;;9.83;4.70;;;;;;;27.36;42.53;100514.33;1662245;86;21027;-58
2022/06/01 09:25:38;;;;;;;6.62;4.45;;;;;;;27.27;42.43;100510.52;1662157;85;21067;-58
2022/06/01 09:28:27;;;;;;;7.67;4.80;;;;;;;27.22;41.82;100513.41;1662223;86;21166;-61
2022/06/01 09:31:21;;;;;;;9.33;3.83;;;;;;;27.10;42.09;100508.82;1661850;85;21087;-59
2022/06/01 09:33:50;;;;;;;8.43;4.40;;;;;;;26.99;42.36;100507.30;1662014;86;21131;-60
2022/06/01 09:36:28;;;;;;;7.03;4.42;;;;;;;26.92;42.71;100502.03;1661859;86;21036;-59
2022/06/01 09:39:01;;;;;;;5.62;3.95;;;;;;;26.85;42.92;100506.62;1646994;86;21113;-59
2022/06/01 09:41:38;;;;;;;7.83;4.15;;;;;;;26.70;42.73;100501.23;1662245;86;21629;-59
2022/06/01 09:44:18;;;;;;;6.90;4.10;;;;;;;26.50;43.09;100496.69;1662160;86;21052;-60
2022/06/01 09:46:54;;;;;;;7.30;4.42;;;;;;;26.35;43.48;100487.63;1661096;86;21044;-60
2022/06/01 09:49:31;;;;;;;8.18;4.25;;;;;;;26.30;43.74;100491.88;1662064;86;21113;-58
2022/06/01 09:52:10;;;;;;;7.87;4.12;;;;;;;26.31;43.82;100485.13;1662098;85;21136;-60
2022/06/01 09:54:46;;;;;;;9.95;4.62;;;;;;;26.38;43.64;100489.84;1662298;86;21514;-59
2022/06/01 09:57:26;;;;;;;8.80;4.58;;;;;;;26.42;43.78;100482.48;1646625;86;21094;-60
2022/06/01 10:08:29;;;;;;;7.87;4.70;;;;;;;26.37;44.66;100479.73;1635304;88;21047;-60
2022/06/01 10:11:05;;;;;;;9.48;4.47;;;;;;;26.34;44.04;100475.55;1635313;87;21454;-61
2022/06/01 10:13:50;;;;;;;8.80;6.62;;;;;;;26.25;44.08;100472.27;1641752;87;21458;-59
2022/06/01 10:17:02;;;;;;;7.47;4.00;;;;;;;26.17;43.99;100475.18;1635338;88;21198;-59
2022/06/01 10:19:45;;;;;;;9.88;4.42;;;;;;;26.09;43.83;100476.67;1635388;87;22013;-61
2022/06/01 10:22:22;;;;;;;6.35;4.00;;;;;;;26.03;44.33;100477.87;1635262;88;21548;-60
2022/06/01 10:25:15;;;;;;;;;;;;;;;26.04;44.33;100474.50;1637574;87;21508;-59
2022/06/01 10:28:00;;;;;;;6.60;4.50;;;;;;;26.01;44.29;100467.51;1635291;88;20161;-59
2022/06/01 10:30:37;;;;;;;7.17;4.00;;;;;;;26.00;44.33;100470.02;1622948;87;21136;-60
2022/06/01 10:33:26;;;;;;;6.72;4.40;;;;;;;25.95;44.41;100481.30;1601780;89;21054;-62
2022/06/01 10:36:13;;;;;;;7.15;4.10;;;;;;;25.90;44.51;100475.18;1635311;87;21106;-61
2022/06/01 10:38:47;;;;;;;6.50;4.10;;;;;;;25.84;44.68;100474.13;1635135;87;21067;-61
2022/06/01 10:41:38;;;;;;;5.83;4.08;;;;;;;25.81;44.95;100464.34;1635461;87;21050;-60
2022/06/01 10:44:25;;;;;;;4.67;4.10;;;;;;;25.84;44.98;100460.93;1635254;88;21031;-59
2022/06/01 10:47:38;;;;;;;9.15;4.70;;;;;;;25.96;45.21;100449.85;1635031;87;21026;-63
2022/06/01 10:50:19;;;;;;;6.78;4.50;;;;;;;26.07;45.24;100447.22;1635295;88;21470;-59
2022/06/01 10:53:14;;;;;;;7.35;4.03;;;;;;;26.14;44.69;100447.69;1635243;88;21114;-61
2022/06/01 10:55:44;;;;;;;7.62;4.12;;;;;;;26.18;44.79;100446.79;1638293;85;21536;-60
2022/06/01 10:58:20;;;;;;;11.15;4.78;;;;;;;26.22;44.46;100446.45;1662387;85;21042;-59
2022/06/01 11:00:55;;;;;;;9.03;5.40;;;;;;;26.27;44.03;100437.70;1663947;86;21500;-60
2022/06/01 11:03:38;;;;;;;9.50;4.40;;;;;;;26.28;43.18;100435.16;1663754;85;21477;-58
2022/06/01 11:06:38;;;;;;;10.80;4.30;;;;;;;26.31;43.18;100440.17;1663466;85;21771;-59
2022/06/01 11:09:12;;;;;;;5.67;4.00;;;;;;;26.29;43.25;100429.80;1663736;85;21065;-60
2022/06/01 11:11:49;;;;;;;5.97;4.17;;;;;;;26.27;43.33;100430.11;1663609;85;21017;-60
2022/06/01 11:14:55;;;;;;;6.62;4.37;;;;;;;26.25;43.56;100425.36;1663443;86;21093;-61
2022/06/01 11:17:43;;;;;;;8.63;3.92;;;;;;;26.27;43.48;100432.08;1663587;85;21045;-59
2022/06/01 11:20:46;;;;;;;5.42;3.70;;;;;;;26.19;43.80;100430.20;1663829;86;22074;-61
2022/06/01 11:23:49;;;;;;;9.88;4.00;;;;;;;26.15;42.86;100419.30;1663694;85;21492;-60
2022/06/01 11:26:26;;;;;;;9.90;4.17;;;;;;;26.21;42.74;100425.12;1663566;86;21015;-62
2022/06/01 11:29:25;;;;;;;5.10;3.67;;;;;;;26.30;42.64;100423.87;1663502;86;21033;-61
2022/06/01 11:31:59;;;;;;;6.75;3.70;;;;;;;26.36;42.74;100414.28;1663222;85;21531;-61
2022/06/01 11:34:45;;;;;;;5.58;3.52;;;;;;;26.33;42.37;100425.28;1663527;86;21061;-60
2022/06/01 11:37:19;;;;;;;5.55;3.70;;;;;;;26.25;42.51;100423.11;1663549;85;21602;-59
2022/06/01 11:39:59;;;;;;;5.03;3.37;;;;;;;26.18;42.26;100413.08;1663742;86;21037;-61
2022/06/01 11:42:36;;;;;;;6.20;4.03;;;;;;;26.16;42.40;100415.36;1663544;86;21034;-61
2022/06/01 11:45:13;;;;;;;4.65;3.50;;;;;;;26.12;42.29;100413.45;1663886;86;21081;-60
2022/06/01 11:47:52;;;;;;;6.85;3.33;;;;;;;26.03;42.38;100414.69;1649149;86;21148;-59
2022/06/01 11:50:57;;;;;;;7.00;3.42;;;;;;;25.91;42.65;100401.61;1663583;86;21041;-59
2022/06/01 11:53:38;;;;;;;8.25;3.20;;;;;;;25.89;42.56;100406.70;1663885;85;21132;-59
2022/06/01 11:56:18;;;;;;;6.87;3.02;;;;;;;25.90;42.61;100405.55;1649200;86;21072;-58
2022/06/01 11:59:07;;;;;;;6.62;3.30;;;;;;;25.93;42.43;100403.55;1671389;85;21553;-61
2022/06/01 12:02:06;;;;;;;4.65;3.30;;;;;;;25.97;42.58;100401.81;1678218;85;21505;-60
2022/06/01 12:04:56;;;;;;;5.50;3.02;;;;;;;26.05;42.17;100405.97;1615555;88;21128;-62
2022/06/01 12:07:33;;;;;;;20.92;3.72;;;;;;;26.13;41.45;100404.73;1615245;89;21114;-60
2022/06/01 12:10:22;;;;;;;10.50;3.50;;;;;;;26.26;41.13;100411.58;1615758;89;21100;-60
2022/06/01 12:13:08;;;;;;;4.92;2.90;;;;;;;26.24;40.79;100398.41;1615645;89;21513;-61
2022/06/01 12:15:50;;;;;;;4.45;2.87;;;;;;;26.21;40.56;100394.80;1615648;89;21060;-61
2022/06/01 12:18:27;;;;;;;8.73;3.25;;;;;;;26.19;41.14;100393.69;1607151;88;21084;-60
2022/06/01 12:21:15;;;;;;;4.65;2.95;;;;;;;26.18;41.67;100398.20;1615484;89;21559;-59
2022/06/01 12:30:17;;;;;;;4.30;2.80;;;;;;;26.37;40.94;100388.42;1660069;86;21067;-59
2022/06/01 12:33:07;;;;;;;8.00;2.77;;;;;;;26.40;40.86;100387.24;1661989;86;21007;-59